Terminal Aerodrome Forecast
Issued by NWS Amarillo, TX

Home | Current Version | Previous Version | Text Only | Print | Product List | Glossary On
Versions: 1 2 3 4 5 6 7 8 9 10 11 12
740
FTUS44 KAMA 122320
TAFGUY
TAF
KGUY 122320Z 1300/1324 12010KT P6SM SKC
     FM130900 16011KT 3SM BR OVC004
     FM131700 19019G27KT P6SM SCT300=

USA.gov is the U.S. government's official web portal to all federal, state and local government web resources and services.